DLH1907 HEGN-EDDF
Flight info
| Callsign | DLH1907 |
|---|---|
| Flight time | N/A |
| Altitude | 38000 |
| Route | BOTIX1B BOTIX V608 NABED T55 KUNKI P751 METRU UM872 LINGI DCT TRL DCT TUMBO DCT TAZ DCT EMKES DCT EDALA DCT KOMAR/N0478F400 DCT PIXAL DCT PODET DCT NEMAL DCT SIMBA DCT AKINI T161 DEBHI DEBHI1B |
| Aircraft | A35K/H-SDE2E3GHIJ3J4J5LM1ORWXY/LB1D1 |
Departure
| Time | 2026-05-03 21:33 |
|---|---|
| Airport | Hurghada International Airport (HEGN) |
Arrival
| Time | N/A |
|---|---|
| Airport | Frankfurt Main Airport (EDDF) |
| Time | Latitude | Longitude | Altitude | Speed | Heading |
|---|---|---|---|---|---|
| 2026-05-03 21:03 | 27.17670 | 33.80505 | 64 ft | 0 kts | 255° |
| 2026-05-03 21:12 | 27.17674 | 33.80523 | 55 ft | 3 kts | 255° |
| 2026-05-03 21:13 | 27.17681 | 33.80544 | 55 ft | 3 kts | 227° |
| 2026-05-03 21:13 | 27.17697 | 33.80557 | 55 ft | 3 kts | 191° |
| 2026-05-03 21:13 | 27.17715 | 33.80558 | 55 ft | 0 kts | 157° |
| 2026-05-03 21:19 | 27.17689 | 33.80571 | 55 ft | 7 kts | 157° |
| 2026-05-03 21:20 | 27.17637 | 33.80596 | 56 ft | 9 kts | 157° |
| 2026-05-03 21:20 | 27.17572 | 33.80623 | 56 ft | 11 kts | 160° |
| 2026-05-03 21:20 | 27.17495 | 33.80654 | 56 ft | 13 kts | 160° |
| 2026-05-03 21:20 | 27.17469 | 33.80659 | 60 ft | 0 kts | 171° |
| 2026-05-03 21:21 | 27.17452 | 33.80661 | 57 ft | 6 kts | 174° |
| 2026-05-03 21:21 | 27.17404 | 33.80667 | 58 ft | 8 kts | 174° |
| 2026-05-03 21:21 | 27.17343 | 33.80678 | 56 ft | 10 kts | 168° |
| 2026-05-03 21:21 | 27.17269 | 33.80697 | 56 ft | 12 kts | 167° |
| 2026-05-03 21:22 | 27.17211 | 33.80714 | 56 ft | 9 kts | 165° |
| 2026-05-03 21:22 | 27.17145 | 33.80734 | 58 ft | 11 kts | 165° |
| 2026-05-03 21:22 | 27.17078 | 33.80712 | 55 ft | 11 kts | 226° |
| 2026-05-03 21:22 | 27.17048 | 33.80636 | 54 ft | 11 kts | 251° |
| 2026-05-03 21:23 | 27.17047 | 33.80631 | 54 ft | 0 kts | 251° |
| 2026-05-03 21:28 | 27.17044 | 33.80622 | 54 ft | 1 kts | 251° |
| 2026-05-03 21:28 | 27.17036 | 33.80595 | 57 ft | 7 kts | 250° |
| 2026-05-03 21:28 | 27.16990 | 33.80537 | 53 ft | 13 kts | 199° |
| 2026-05-03 21:29 | 27.16898 | 33.80554 | 49 ft | 15 kts | 165° |
| 2026-05-03 21:29 | 27.16785 | 33.80589 | 48 ft | 19 kts | 164° |
| 2026-05-03 21:29 | 27.16655 | 33.80629 | 49 ft | 20 kts | 165° |
| 2026-05-03 21:29 | 27.16540 | 33.80665 | 50 ft | 0 kts | 164° |
| 2026-05-03 21:30 | 27.16488 | 33.80681 | 52 ft | 17 kts | 164° |
| 2026-05-03 21:31 | 27.16454 | 33.80692 | 49 ft | 0 kts | 164° |
| 2026-05-03 21:31 | 27.16415 | 33.80704 | 48 ft | 18 kts | 165° |
| 2026-05-03 21:31 | 27.16281 | 33.80745 | 46 ft | 21 kts | 165° |
| 2026-05-03 21:31 | 27.16165 | 33.80744 | 45 ft | 13 kts | 223° |
| 2026-05-03 21:32 | 27.16138 | 33.80657 | 43 ft | 11 kts | 275° |
| 2026-05-03 21:32 | 27.16183 | 33.80604 | 45 ft | 10 kts | 340° |
| 2026-05-03 21:32 | 27.16376 | 33.80538 | 46 ft | 61 kts | 343° |
| 2026-05-03 21:32 | 27.17003 | 33.80351 | 49 ft | 124 kts | 345° |
| 2026-05-03 21:33 | 27.18015 | 33.80051 | 69 ft | 175 kts | 342° |
| 2026-05-03 21:33 | 27.19285 | 33.79691 | 428 ft | 198 kts | 345° |
| 2026-05-03 21:33 | 27.20683 | 33.79284 | 1045 ft | 215 kts | 341° |
| 2026-05-03 21:33 | 27.22149 | 33.78848 | 1794 ft | 220 kts | 342° |
| 2026-05-03 21:34 | 27.23619 | 33.78305 | 2559 ft | 225 kts | 337° |
| 2026-05-03 21:34 | 27.25067 | 33.77612 | 3310 ft | 227 kts | 332° |
| 2026-05-03 21:34 | 27.26466 | 33.76772 | 4049 ft | 229 kts | 327° |
| 2026-05-03 21:34 | 27.27858 | 33.75902 | 4823 ft | 230 kts | 337° |
| 2026-05-03 21:35 | 27.29358 | 33.75765 | 6035 ft | 205 kts | 355° |
| 2026-05-03 21:35 | 27.30720 | 33.75637 | 6824 ft | 188 kts | 332° |
| 2026-05-03 21:35 | 27.31718 | 33.74910 | 7419 ft | 168 kts | 303° |
| 2026-05-03 21:35 | 27.32403 | 33.73850 | 7795 ft | 171 kts | 289° |
| 2026-05-03 21:36 | 27.32821 | 33.72515 | 7964 ft | 194 kts | 275° |
| 2026-05-03 21:36 | 27.32862 | 33.70881 | 7967 ft | 226 kts | 259° |
| 2026-05-03 21:36 | 27.32448 | 33.69102 | 7947 ft | 242 kts | 251° |
| 2026-05-03 21:36 | 27.31892 | 33.67299 | 7957 ft | 245 kts | 250° |
| 2026-05-03 21:37 | 27.31331 | 33.65488 | 7951 ft | 246 kts | 251° |
| 2026-05-03 21:37 | 27.30779 | 33.63669 | 7956 ft | 246 kts | 251° |
| 2026-05-03 21:37 | 27.30235 | 33.61851 | 7951 ft | 246 kts | 251° |
| 2026-05-03 21:37 | 27.29691 | 33.60023 | 7953 ft | 247 kts | 251° |
| 2026-05-03 21:38 | 27.29148 | 33.58191 | 7949 ft | 247 kts | 251° |
| 2026-05-03 21:38 | 27.28612 | 33.56384 | 7951 ft | 248 kts | 251° |
| 2026-05-03 21:38 | 27.28061 | 33.54521 | 7952 ft | 248 kts | 251° |
| 2026-05-03 21:38 | 27.27523 | 33.52703 | 7960 ft | 248 kts | 251° |
| 2026-05-03 21:39 | 27.26971 | 33.50835 | 7962 ft | 248 kts | 251° |
| 2026-05-03 21:39 | 27.26434 | 33.49022 | 7958 ft | 248 kts | 251° |
| 2026-05-03 21:39 | 27.25892 | 33.47180 | 8070 ft | 249 kts | 251° |
| 2026-05-03 21:39 | 27.25345 | 33.45323 | 8623 ft | 250 kts | 251° |
| 2026-05-03 21:40 | 27.24803 | 33.43491 | 9690 ft | 244 kts | 251° |
| 2026-05-03 21:40 | 27.24271 | 33.41690 | 10570 ft | 247 kts | 251° |
| 2026-05-03 21:40 | 27.23709 | 33.39793 | 10957 ft | 266 kts | 251° |
| 2026-05-03 21:40 | 27.23104 | 33.37751 | 11322 ft | 284 kts | 251° |
| 2026-05-03 21:41 | 27.22464 | 33.35578 | 11678 ft | 302 kts | 252° |
| 2026-05-03 21:41 | 27.21963 | 33.33215 | 12013 ft | 320 kts | 261° |
| 2026-05-03 21:41 | 27.21877 | 33.30674 | 12510 ft | 331 kts | 269° |
| 2026-05-03 21:41 | 27.22002 | 33.28039 | 12990 ft | 344 kts | 272° |
| 2026-05-03 21:42 | 27.22240 | 33.25360 | 13869 ft | 345 kts | 273° |
| 2026-05-03 21:42 | 27.22509 | 33.22679 | 14563 ft | 346 kts | 274° |
| 2026-05-03 21:42 | 27.22773 | 33.19974 | 15136 ft | 352 kts | 273° |
| 2026-05-03 21:42 | 27.23025 | 33.17220 | 15746 ft | 355 kts | 273° |
| 2026-05-03 21:43 | 27.23267 | 33.14448 | 16398 ft | 358 kts | 273° |
| 2026-05-03 21:43 | 27.23501 | 33.11656 | 17012 ft | 361 kts | 273° |
| 2026-05-03 21:43 | 27.23732 | 33.08833 | 17622 ft | 364 kts | 273° |
| 2026-05-03 21:43 | 27.23962 | 33.05988 | 18210 ft | 368 kts | 273° |
| 2026-05-03 21:44 | 27.24195 | 33.03108 | 18746 ft | 372 kts | 273° |
| 2026-05-03 21:44 | 27.24428 | 33.00205 | 19310 ft | 375 kts | 273° |
| 2026-05-03 21:44 | 27.24663 | 32.97272 | 19847 ft | 379 kts | 273° |
| 2026-05-03 21:44 | 27.24901 | 32.94311 | 20403 ft | 382 kts | 273° |
| 2026-05-03 21:45 | 27.25139 | 32.91327 | 20963 ft | 385 kts | 273° |
| 2026-05-03 21:45 | 27.25380 | 32.88316 | 21516 ft | 389 kts | 273° |
| 2026-05-03 21:45 | 27.25623 | 32.85276 | 22019 ft | 393 kts | 273° |
| 2026-05-03 21:45 | 27.25868 | 32.82188 | 22519 ft | 398 kts | 273° |
| 2026-05-03 21:46 | 27.26115 | 32.79077 | 23096 ft | 402 kts | 273° |
| 2026-05-03 21:46 | 27.26363 | 32.75939 | 23652 ft | 405 kts | 273° |
| 2026-05-03 21:46 | 27.26614 | 32.72766 | 24163 ft | 408 kts | 272° |
| 2026-05-03 21:46 | 27.26780 | 32.70656 | 24542 ft | 410 kts | 272° |
| 2026-05-03 21:47 | 27.27031 | 32.67462 | 25102 ft | 411 kts | 272° |
| 2026-05-03 21:47 | 27.27283 | 32.64250 | 25663 ft | 414 kts | 272° |
| 2026-05-03 21:47 | 27.27535 | 32.61020 | 26242 ft | 416 kts | 272° |
| 2026-05-03 21:47 | 27.27787 | 32.57785 | 26847 ft | 417 kts | 272° |
| 2026-05-03 21:48 | 27.28039 | 32.54528 | 27380 ft | 419 kts | 272° |
| 2026-05-03 21:48 | 27.28292 | 32.51250 | 27884 ft | 422 kts | 271° |
| 2026-05-03 21:48 | 27.28545 | 32.47954 | 28408 ft | 425 kts | 271° |
| 2026-05-03 21:48 | 27.28800 | 32.44635 | 28908 ft | 427 kts | 271° |
| 2026-05-03 21:49 | 27.29054 | 32.41300 | 29429 ft | 429 kts | 271° |
| 2026-05-03 21:49 | 27.29309 | 32.37954 | 29948 ft | 431 kts | 271° |
| 2026-05-03 21:49 | 27.29564 | 32.34591 | 30398 ft | 432 kts | 271° |
| 2026-05-03 21:49 | 27.29818 | 32.31224 | 30819 ft | 433 kts | 271° |
| 2026-05-03 21:50 | 27.30073 | 32.27841 | 31246 ft | 434 kts | 271° |
| 2026-05-03 21:50 | 27.30326 | 32.24502 | 31639 ft | 436 kts | 271° |
| 2026-05-03 21:50 | 27.30586 | 32.21098 | 31995 ft | 437 kts | 271° |
| 2026-05-03 21:50 | 27.30840 | 32.17688 | 32337 ft | 439 kts | 270° |
| 2026-05-03 21:51 | 27.31078 | 32.14256 | 32634 ft | 441 kts | 270° |
| 2026-05-03 21:51 | 27.31299 | 32.10824 | 32879 ft | 442 kts | 270° |
| 2026-05-03 21:51 | 27.31505 | 32.07361 | 33111 ft | 444 kts | 270° |
| 2026-05-03 21:51 | 27.31684 | 32.03896 | 33236 ft | 445 kts | 269° |
| 2026-05-03 21:52 | 27.31955 | 31.96924 | 33335 ft | 448 kts | 269° |
| 2026-05-03 21:52 | 27.32159 | 31.89888 | 33120 ft | 453 kts | 268° |
| 2026-05-03 21:53 | 27.32239 | 31.86331 | 32892 ft | 458 kts | 268° |
| 2026-05-03 21:53 | 27.32301 | 31.82733 | 32548 ft | 464 kts | 268° |
| 2026-05-03 21:53 | 27.32341 | 31.79060 | 32049 ft | 474 kts | 268° |
| 2026-05-03 21:53 | 27.32358 | 31.75296 | 31207 ft | 490 kts | 268° |
| 2026-05-03 21:54 | 27.32368 | 31.71403 | 28482 ft | 499 kts | 268° |
| 2026-05-03 21:54 | 27.32371 | 31.67661 | 20556 ft | 460 kts | 269° |
| 2026-05-03 21:54 | 27.32336 | 31.63730 | 12113 ft | 375 kts | 270° |
| 2026-05-03 21:54 | 27.32922 | 31.61009 | 9794 ft | 335 kts | 290° |
| 2026-05-03 21:55 | 27.17670 | 33.80505 | 7276 ft | 5 kts | 255° |